sensor_id;sensor_type;location;lat;lon;timestamp;P1;durP1;ratioP1;P2;durP2;ratioP2
80131;SDS011;69442;51.442;10.564;2023-07-13T00:00:28;2.08;;;0.80;;
80131;SDS011;69442;51.442;10.564;2023-07-13T00:02:54;1.63;;;0.82;;
80131;SDS011;69442;51.442;10.564;2023-07-13T00:05:20;1.95;;;0.90;;
80131;SDS011;69442;51.442;10.564;2023-07-13T00:07:46;2.47;;;0.98;;
80131;SDS011;69442;51.442;10.564;2023-07-13T00:10:11;1.45;;;0.90;;
80131;SDS011;69442;51.442;10.564;2023-07-13T00:12:37;2.15;;;1.10;;
80131;SDS011;69442;51.442;10.564;2023-07-13T00:15:05;1.80;;;1.02;;
80131;SDS011;69442;51.442;10.564;2023-07-13T00:17:42;3.03;;;1.33;;
80131;SDS011;69442;51.442;10.564;2023-07-13T00:20:11;3.10;;;1.20;;
80131;SDS011;69442;51.442;10.564;2023-07-13T00:22:37;2.47;;;1.20;;
80131;SDS011;69442;51.442;10.564;2023-07-13T00:25:02;2.55;;;1.20;;
80131;SDS011;69442;51.442;10.564;2023-07-13T00:27:28;4.13;;;1.40;;
80131;SDS011;69442;51.442;10.564;2023-07-13T00:29:56;2.20;;;1.10;;
80131;SDS011;69442;51.442;10.564;2023-07-13T00:32:22;2.72;;;1.40;;
80131;SDS011;69442;51.442;10.564;2023-07-13T00:34:50;2.45;;;1.42;;
80131;SDS011;69442;51.442;10.564;2023-07-13T00:37:15;2.92;;;1.20;;
80131;SDS011;69442;51.442;10.564;2023-07-13T00:39:41;3.25;;;1.48;;
80131;SDS011;69442;51.442;10.564;2023-07-13T00:42:06;4.15;;;1.58;;
80131;SDS011;69442;51.442;10.564;2023-07-13T00:44:32;5.57;;;1.67;;
80131;SDS011;69442;51.442;10.564;2023-07-13T00:46:58;4.10;;;1.52;;
80131;SDS011;69442;51.442;10.564;2023-07-13T00:49:24;4.80;;;1.85;;
80131;SDS011;69442;51.442;10.564;2023-07-13T00:51:54;2.28;;;1.40;;
80131;SDS011;69442;51.442;10.564;2023-07-13T00:54:28;4.30;;;1.48;;
80131;SDS011;69442;51.442;10.564;2023-07-13T00:56:57;3.55;;;1.50;;
80131;SDS011;69442;51.442;10.564;2023-07-13T00:59:26;4.28;;;1.58;;
80131;SDS011;69442;51.442;10.564;2023-07-13T01:01:51;3.25;;;1.80;;
80131;SDS011;69442;51.442;10.564;2023-07-13T01:04:17;2.78;;;1.70;;
80131;SDS011;69442;51.442;10.564;2023-07-13T01:06:43;6.68;;;2.10;;
80131;SDS011;69442;51.442;10.564;2023-07-13T01:09:11;4.88;;;1.67;;
80131;SDS011;69442;51.442;10.564;2023-07-13T01:11:37;5.22;;;1.73;;
80131;SDS011;69442;51.442;10.564;2023-07-13T01:14:03;6.30;;;1.80;;
80131;SDS011;69442;51.442;10.564;2023-07-13T01:16:29;2.90;;;1.65;;
80131;SDS011;69442;51.442;10.564;2023-07-13T01:18:58;2.60;;;1.33;;
80131;SDS011;69442;51.442;10.564;2023-07-13T01:21:26;3.55;;;1.60;;
80131;SDS011;69442;51.442;10.564;2023-07-13T01:23:52;3.63;;;1.45;;
80131;SDS011;69442;51.442;10.564;2023-07-13T01:26:18;3.00;;;1.55;;
80131;SDS011;69442;51.442;10.564;2023-07-13T01:28:43;2.35;;;1.50;;
80131;SDS011;69442;51.442;10.564;2023-07-13T01:31:09;2.72;;;1.58;;
80131;SDS011;69442;51.442;10.564;2023-07-13T01:33:36;3.63;;;1.55;;
80131;SDS011;69442;51.442;10.564;2023-07-13T01:36:04;2.30;;;1.83;;
80131;SDS011;69442;51.442;10.564;2023-07-13T01:38:30;5.20;;;1.42;;
80131;SDS011;69442;51.442;10.564;2023-07-13T01:40:56;3.00;;;1.55;;
80131;SDS011;69442;51.442;10.564;2023-07-13T01:43:21;4.13;;;1.60;;
80131;SDS011;69442;51.442;10.564;2023-07-13T01:45:46;3.72;;;1.50;;
80131;SDS011;69442;51.442;10.564;2023-07-13T01:48:12;3.17;;;1.35;;
80131;SDS011;69442;51.442;10.564;2023-07-13T01:50:38;4.43;;;2.20;;
80131;SDS011;69442;51.442;10.564;2023-07-13T01:53:04;3.25;;;1.42;;
80131;SDS011;69442;51.442;10.564;2023-07-13T01:55:29;6.07;;;1.50;;
80131;SDS011;69442;51.442;10.564;2023-07-13T01:57:56;4.63;;;1.58;;
80131;SDS011;69442;51.442;10.564;2023-07-13T02:00:22;3.05;;;1.60;;
80131;SDS011;69442;51.442;10.564;2023-07-13T02:02:47;3.38;;;1.33;;
80131;SDS011;69442;51.442;10.564;2023-07-13T02:05:13;1.73;;;1.40;;
80131;SDS011;69442;51.442;10.564;2023-07-13T02:07:39;3.25;;;1.38;;
80131;SDS011;69442;51.442;10.564;2023-07-13T02:10:06;4.00;;;1.60;;
80131;SDS011;69442;51.442;10.564;2023-07-13T02:12:32;4.45;;;1.80;;
80131;SDS011;69442;51.442;10.564;2023-07-13T02:14:58;4.00;;;1.40;;
80131;SDS011;69442;51.442;10.564;2023-07-13T02:17:23;4.82;;;1.63;;
80131;SDS011;69442;51.442;10.564;2023-07-13T02:19:49;2.97;;;1.40;;
80131;SDS011;69442;51.442;10.564;2023-07-13T02:22:14;4.28;;;1.63;;
80131;SDS011;69442;51.442;10.564;2023-07-13T02:24:40;3.72;;;1.70;;
80131;SDS011;69442;51.442;10.564;2023-07-13T02:27:05;2.92;;;1.80;;
80131;SDS011;69442;51.442;10.564;2023-07-13T02:29:31;2.03;;;1.38;;
80131;SDS011;69442;51.442;10.564;2023-07-13T02:31:56;3.35;;;1.40;;
80131;SDS011;69442;51.442;10.564;2023-07-13T02:34:21;2.55;;;1.42;;
80131;SDS011;69442;51.442;10.564;2023-07-13T02:36:47;3.47;;;1.40;;
80131;SDS011;69442;51.442;10.564;2023-07-13T02:39:13;3.35;;;1.58;;
80131;SDS011;69442;51.442;10.564;2023-07-13T02:41:39;3.67;;;1.45;;
80131;SDS011;69442;51.442;10.564;2023-07-13T02:44:04;2.35;;;1.80;;
80131;SDS011;69442;51.442;10.564;2023-07-13T02:46:31;3.63;;;1.70;;
80131;SDS011;69442;51.442;10.564;2023-07-13T02:48:56;2.50;;;1.55;;
80131;SDS011;69442;51.442;10.564;2023-07-13T02:51:22;3.17;;;1.35;;
80131;SDS011;69442;51.442;10.564;2023-07-13T02:53:47;2.13;;;1.50;;
80131;SDS011;69442;51.442;10.564;2023-07-13T02:56:13;2.50;;;1.50;;
80131;SDS011;69442;51.442;10.564;2023-07-13T02:58:38;3.70;;;1.52;;
80131;SDS011;69442;51.442;10.564;2023-07-13T03:01:07;2.67;;;1.50;;
80131;SDS011;69442;51.442;10.564;2023-07-13T03:03:35;5.43;;;1.50;;
80131;SDS011;69442;51.442;10.564;2023-07-13T03:06:01;2.10;;;1.25;;
80131;SDS011;69442;51.442;10.564;2023-07-13T03:08:28;4.63;;;1.40;;
80131;SDS011;69442;51.442;10.564;2023-07-13T03:11:11;2.08;;;1.42;;
80131;SDS011;69442;51.442;10.564;2023-07-13T03:13:41;3.17;;;1.50;;
80131;SDS011;69442;51.442;10.564;2023-07-13T03:16:07;2.38;;;1.58;;
80131;SDS011;69442;51.442;10.564;2023-07-13T03:18:34;2.10;;;1.35;;
80131;SDS011;69442;51.442;10.564;2023-07-13T03:21:00;3.85;;;1.38;;
80131;SDS011;69442;51.442;10.564;2023-07-13T03:23:26;3.25;;;1.40;;
80131;SDS011;69442;51.442;10.564;2023-07-13T03:26:00;3.50;;;1.63;;
80131;SDS011;69442;51.442;10.564;2023-07-13T03:28:38;3.80;;;1.50;;
80131;SDS011;69442;51.442;10.564;2023-07-13T03:31:05;4.05;;;1.90;;
80131;SDS011;69442;51.442;10.564;2023-07-13T03:33:34;5.37;;;1.50;;
80131;SDS011;69442;51.442;10.564;2023-07-13T03:36:00;2.97;;;1.75;;
80131;SDS011;69442;51.442;10.564;2023-07-13T03:38:25;4.30;;;1.67;;
80131;SDS011;69442;51.442;10.564;2023-07-13T03:40:51;5.70;;;1.75;;
80131;SDS011;69442;51.442;10.564;2023-07-13T03:43:17;4.60;;;1.60;;
80131;SDS011;69442;51.442;10.564;2023-07-13T03:45:42;4.20;;;1.88;;
80131;SDS011;69442;51.442;10.564;2023-07-13T03:48:08;2.97;;;1.60;;
80131;SDS011;69442;51.442;10.564;2023-07-13T03:50:33;3.47;;;1.80;;
80131;SDS011;69442;51.442;10.564;2023-07-13T03:52:59;3.88;;;2.03;;
80131;SDS011;69442;51.442;10.564;2023-07-13T03:55:25;3.92;;;1.83;;
80131;SDS011;69442;51.442;10.564;2023-07-13T03:57:57;4.68;;;1.98;;
80131;SDS011;69442;51.442;10.564;2023-07-13T04:00:26;3.60;;;2.05;;
80131;SDS011;69442;51.442;10.564;2023-07-13T04:02:51;3.60;;;1.85;;
80131;SDS011;69442;51.442;10.564;2023-07-13T04:05:16;5.22;;;1.88;;
80131;SDS011;69442;51.442;10.564;2023-07-13T04:07:42;3.72;;;1.83;;
80131;SDS011;69442;51.442;10.564;2023-07-13T04:10:07;4.22;;;1.75;;
80131;SDS011;69442;51.442;10.564;2023-07-13T04:12:33;4.15;;;2.35;;
80131;SDS011;69442;51.442;10.564;2023-07-13T04:14:59;3.30;;;1.88;;
80131;SDS011;69442;51.442;10.564;2023-07-13T04:17:24;4.15;;;2.50;;
80131;SDS011;69442;51.442;10.564;2023-07-13T04:19:50;5.53;;;1.70;;
80131;SDS011;69442;51.442;10.564;2023-07-13T04:22:15;4.95;;;2.03;;
80131;SDS011;69442;51.442;10.564;2023-07-13T04:24:41;2.75;;;1.63;;
80131;SDS011;69442;51.442;10.564;2023-07-13T04:27:06;3.67;;;1.80;;
80131;SDS011;69442;51.442;10.564;2023-07-13T04:29:32;5.70;;;2.00;;
80131;SDS011;69442;51.442;10.564;2023-07-13T04:31:57;6.40;;;2.17;;
80131;SDS011;69442;51.442;10.564;2023-07-13T04:34:23;5.35;;;2.03;;
80131;SDS011;69442;51.442;10.564;2023-07-13T04:36:49;5.05;;;1.80;;
80131;SDS011;69442;51.442;10.564;2023-07-13T04:39:14;6.85;;;2.13;;
80131;SDS011;69442;51.442;10.564;2023-07-13T04:41:40;4.55;;;2.13;;
80131;SDS011;69442;51.442;10.564;2023-07-13T04:44:05;4.32;;;1.92;;
80131;SDS011;69442;51.442;10.564;2023-07-13T04:46:31;3.65;;;2.00;;
80131;SDS011;69442;51.442;10.564;2023-07-13T04:48:56;6.10;;;2.20;;
80131;SDS011;69442;51.442;10.564;2023-07-13T04:51:22;3.72;;;1.88;;
80131;SDS011;69442;51.442;10.564;2023-07-13T04:53:48;4.82;;;1.58;;
80131;SDS011;69442;51.442;10.564;2023-07-13T04:56:13;3.20;;;1.95;;
80131;SDS011;69442;51.442;10.564;2023-07-13T04:58:39;3.50;;;1.73;;
80131;SDS011;69442;51.442;10.564;2023-07-13T05:01:05;3.03;;;1.85;;
80131;SDS011;69442;51.442;10.564;2023-07-13T05:03:31;3.53;;;1.83;;
80131;SDS011;69442;51.442;10.564;2023-07-13T05:05:58;4.75;;;2.33;;
80131;SDS011;69442;51.442;10.564;2023-07-13T05:08:25;4.03;;;1.95;;
80131;SDS011;69442;51.442;10.564;2023-07-13T05:10:51;4.50;;;1.65;;
80131;SDS011;69442;51.442;10.564;2023-07-13T05:13:17;3.90;;;1.80;;
80131;SDS011;69442;51.442;10.564;2023-07-13T05:15:43;5.95;;;2.60;;
80131;SDS011;69442;51.442;10.564;2023-07-13T05:18:08;3.88;;;2.00;;
80131;SDS011;69442;51.442;10.564;2023-07-13T05:20:33;3.50;;;1.65;;
80131;SDS011;69442;51.442;10.564;2023-07-13T05:22:59;3.08;;;1.75;;
80131;SDS011;69442;51.442;10.564;2023-07-13T05:25:24;1.42;;;1.17;;
80131;SDS011;69442;51.442;10.564;2023-07-13T05:27:49;2.58;;;1.45;;
80131;SDS011;69442;51.442;10.564;2023-07-13T05:30:15;2.08;;;0.95;;
80131;SDS011;69442;51.442;10.564;2023-07-13T05:32:40;4.93;;;1.40;;
80131;SDS011;69442;51.442;10.564;2023-07-13T05:35:06;3.60;;;1.85;;
80131;SDS011;69442;51.442;10.564;2023-07-13T05:37:32;2.90;;;1.80;;
80131;SDS011;69442;51.442;10.564;2023-07-13T05:39:57;4.05;;;1.55;;
80131;SDS011;69442;51.442;10.564;2023-07-13T05:42:23;3.67;;;2.03;;
80131;SDS011;69442;51.442;10.564;2023-07-13T05:44:49;3.80;;;1.50;;
80131;SDS011;69442;51.442;10.564;2023-07-13T05:47:14;1.98;;;1.15;;
80131;SDS011;69442;51.442;10.564;2023-07-13T05:49:40;2.35;;;1.20;;
80131;SDS011;69442;51.442;10.564;2023-07-13T05:52:06;4.53;;;1.80;;
80131;SDS011;69442;51.442;10.564;2023-07-13T05:54:31;4.45;;;1.63;;
80131;SDS011;69442;51.442;10.564;2023-07-13T05:56:57;3.13;;;1.60;;
80131;SDS011;69442;51.442;10.564;2023-07-13T05:59:22;3.05;;;1.50;;
80131;SDS011;69442;51.442;10.564;2023-07-13T06:01:47;4.82;;;1.50;;
80131;SDS011;69442;51.442;10.564;2023-07-13T06:04:13;3.20;;;1.50;;
80131;SDS011;69442;51.442;10.564;2023-07-13T06:06:39;6.40;;;2.15;;
80131;SDS011;69442;51.442;10.564;2023-07-13T06:09:04;3.45;;;1.48;;
80131;SDS011;69442;51.442;10.564;2023-07-13T06:11:30;2.80;;;1.40;;
80131;SDS011;69442;51.442;10.564;2023-07-13T06:13:55;3.13;;;1.60;;
80131;SDS011;69442;51.442;10.564;2023-07-13T06:16:21;5.65;;;1.77;;
80131;SDS011;69442;51.442;10.564;2023-07-13T06:18:47;5.35;;;1.73;;
80131;SDS011;69442;51.442;10.564;2023-07-13T06:21:17;6.20;;;1.75;;
80131;SDS011;69442;51.442;10.564;2023-07-13T06:23:45;2.20;;;1.10;;
80131;SDS011;69442;51.442;10.564;2023-07-13T06:26:15;3.70;;;1.45;;
80131;SDS011;69442;51.442;10.564;2023-07-13T06:28:40;5.85;;;1.48;;
80131;SDS011;69442;51.442;10.564;2023-07-13T06:31:06;3.78;;;1.63;;
80131;SDS011;69442;51.442;10.564;2023-07-13T06:33:33;2.78;;;1.10;;
80131;SDS011;69442;51.442;10.564;2023-07-13T06:35:59;4.65;;;1.60;;
80131;SDS011;69442;51.442;10.564;2023-07-13T06:38:24;2.70;;;1.33;;
80131;SDS011;69442;51.442;10.564;2023-07-13T06:40:50;2.83;;;1.17;;
80131;SDS011;69442;51.442;10.564;2023-07-13T06:43:15;2.97;;;1.30;;
80131;SDS011;69442;51.442;10.564;2023-07-13T06:45:43;5.78;;;1.27;;
80131;SDS011;69442;51.442;10.564;2023-07-13T06:48:14;3.10;;;1.20;;
80131;SDS011;69442;51.442;10.564;2023-07-13T06:50:41;4.13;;;1.30;;
80131;SDS011;69442;51.442;10.564;2023-07-13T06:53:07;3.15;;;1.95;;
80131;SDS011;69442;51.442;10.564;2023-07-13T06:55:33;2.90;;;1.10;;
80131;SDS011;69442;51.442;10.564;2023-07-13T06:57:59;4.85;;;1.60;;
80131;SDS011;69442;51.442;10.564;2023-07-13T07:00:24;2.30;;;1.42;;
80131;SDS011;69442;51.442;10.564;2023-07-13T07:02:50;4.68;;;1.50;;
80131;SDS011;69442;51.442;10.564;2023-07-13T07:05:15;3.10;;;1.50;;
80131;SDS011;69442;51.442;10.564;2023-07-13T07:07:40;2.92;;;1.10;;
80131;SDS011;69442;51.442;10.564;2023-07-13T07:10:06;4.25;;;1.20;;
80131;SDS011;69442;51.442;10.564;2023-07-13T07:12:32;3.50;;;1.10;;
80131;SDS011;69442;51.442;10.564;2023-07-13T07:14:57;1.15;;;0.98;;
80131;SDS011;69442;51.442;10.564;2023-07-13T07:17:22;4.32;;;1.30;;
80131;SDS011;69442;51.442;10.564;2023-07-13T07:19:48;1.15;;;0.90;;
80131;SDS011;69442;51.442;10.564;2023-07-13T07:22:13;4.57;;;1.38;;
80131;SDS011;69442;51.442;10.564;2023-07-13T07:24:39;3.83;;;1.17;;
80131;SDS011;69442;51.442;10.564;2023-07-13T07:27:04;3.92;;;1.30;;
80131;SDS011;69442;51.442;10.564;2023-07-13T07:29:30;3.67;;;1.30;;
80131;SDS011;69442;51.442;10.564;2023-07-13T07:31:55;3.67;;;1.17;;
80131;SDS011;69442;51.442;10.564;2023-07-13T07:34:21;3.10;;;1.13;;
80131;SDS011;69442;51.442;10.564;2023-07-13T07:36:46;3.15;;;1.00;;
80131;SDS011;69442;51.442;10.564;2023-07-13T07:39:11;3.70;;;1.05;;
80131;SDS011;69442;51.442;10.564;2023-07-13T07:41:37;3.90;;;0.80;;
80131;SDS011;69442;51.442;10.564;2023-07-13T07:44:03;3.25;;;0.98;;
80131;SDS011;69442;51.442;10.564;2023-07-13T07:46:29;3.53;;;0.88;;
80131;SDS011;69442;51.442;10.564;2023-07-13T07:48:55;2.38;;;1.02;;
80131;SDS011;69442;51.442;10.564;2023-07-13T07:51:20;3.25;;;1.00;;
80131;SDS011;69442;51.442;10.564;2023-07-13T07:53:46;2.65;;;1.05;;
80131;SDS011;69442;51.442;10.564;2023-07-13T07:56:12;1.15;;;0.63;;
80131;SDS011;69442;51.442;10.564;2023-07-13T07:58:37;3.33;;;1.17;;
80131;SDS011;69442;51.442;10.564;2023-07-13T08:01:06;3.15;;;1.13;;
80131;SDS011;69442;51.442;10.564;2023-07-13T08:03:31;1.83;;;0.90;;
80131;SDS011;69442;51.442;10.564;2023-07-13T08:05:57;2.22;;;0.90;;
80131;SDS011;69442;51.442;10.564;2023-07-13T08:08:23;2.88;;;1.10;;
80131;SDS011;69442;51.442;10.564;2023-07-13T08:10:49;1.80;;;0.60;;
80131;SDS011;69442;51.442;10.564;2023-07-13T08:13:14;4.20;;;1.10;;
80131;SDS011;69442;51.442;10.564;2023-07-13T08:15:39;2.00;;;0.70;;
80131;SDS011;69442;51.442;10.564;2023-07-13T08:18:05;3.33;;;0.82;;
80131;SDS011;69442;51.442;10.564;2023-07-13T08:20:31;2.20;;;0.70;;
80131;SDS011;69442;51.442;10.564;2023-07-13T08:22:56;3.70;;;1.30;;
80131;SDS011;69442;51.442;10.564;2023-07-13T08:25:22;5.68;;;1.15;;
80131;SDS011;69442;51.442;10.564;2023-07-13T08:27:48;2.80;;;0.80;;
80131;SDS011;69442;51.442;10.564;2023-07-13T08:30:13;1.73;;;0.65;;
80131;SDS011;69442;51.442;10.564;2023-07-13T08:32:38;1.63;;;0.70;;
80131;SDS011;69442;51.442;10.564;2023-07-13T08:35:04;5.20;;;1.20;;
80131;SDS011;69442;51.442;10.564;2023-07-13T08:37:30;2.55;;;0.90;;
80131;SDS011;69442;51.442;10.564;2023-07-13T08:39:56;4.32;;;0.85;;
80131;SDS011;69442;51.442;10.564;2023-07-13T08:42:32;5.45;;;0.90;;
80131;SDS011;69442;51.442;10.564;2023-07-13T08:45:04;3.75;;;1.23;;
80131;SDS011;69442;51.442;10.564;2023-07-13T08:47:38;2.30;;;0.65;;
80131;SDS011;69442;51.442;10.564;2023-07-13T08:50:15;2.80;;;0.87;;
80131;SDS011;69442;51.442;10.564;2023-07-13T08:52:43;1.42;;;0.80;;
80131;SDS011;69442;51.442;10.564;2023-07-13T08:55:13;4.10;;;1.17;;
80131;SDS011;69442;51.442;10.564;2023-07-13T08:57:41;3.30;;;1.10;;
80131;SDS011;69442;51.442;10.564;2023-07-13T09:00:10;2.58;;;1.00;;
80131;SDS011;69442;51.442;10.564;2023-07-13T09:05:30;3.60;;;0.93;;
80131;SDS011;69442;51.442;10.564;2023-07-13T09:08:12;2.83;;;0.73;;
80131;SDS011;69442;51.442;10.564;2023-07-13T09:16:50;2.60;;;0.70;;
80131;SDS011;69442;51.442;10.564;2023-07-13T09:19:19;1.40;;;0.80;;
80131;SDS011;69442;51.442;10.564;2023-07-13T09:21:48;2.80;;;1.15;;
80131;SDS011;69442;51.442;10.564;2023-07-13T09:24:28;3.00;;;0.70;;
80131;SDS011;69442;51.442;10.564;2023-07-13T09:27:17;2.00;;;0.70;;
80131;SDS011;69442;51.442;10.564;2023-07-13T09:29:55;2.78;;;0.90;;
80131;SDS011;69442;51.442;10.564;2023-07-13T09:32:45;3.65;;;0.68;;
80131;SDS011;69442;51.442;10.564;2023-07-13T09:35:16;2.17;;;0.75;;
80131;SDS011;69442;51.442;10.564;2023-07-13T09:37:46;2.95;;;0.77;;
80131;SDS011;69442;51.442;10.564;2023-07-13T09:40:25;1.90;;;0.70;;
80131;SDS011;69442;51.442;10.564;2023-07-13T09:43:00;2.97;;;2.63;;
80131;SDS011;69442;51.442;10.564;2023-07-13T09:45:29;2.40;;;1.10;;
80131;SDS011;69442;51.442;10.564;2023-07-13T09:48:14;1.55;;;0.65;;
80131;SDS011;69442;51.442;10.564;2023-07-13T09:50:42;3.35;;;1.00;;
80131;SDS011;69442;51.442;10.564;2023-07-13T09:53:15;1.65;;;0.80;;
80131;SDS011;69442;51.442;10.564;2023-07-13T09:55:43;2.53;;;0.80;;
80131;SDS011;69442;51.442;10.564;2023-07-13T09:58:20;3.85;;;1.00;;
80131;SDS011;69442;51.442;10.564;2023-07-13T10:00:56;2.05;;;0.77;;
80131;SDS011;69442;51.442;10.564;2023-07-13T10:03:24;2.80;;;0.93;;
80131;SDS011;69442;51.442;10.564;2023-07-13T10:05:51;2.90;;;1.08;;
80131;SDS011;69442;51.442;10.564;2023-07-13T10:08:22;3.05;;;1.00;;
80131;SDS011;69442;51.442;10.564;2023-07-13T10:11:02;1.60;;;0.70;;
80131;SDS011;69442;51.442;10.564;2023-07-13T10:13:35;1.67;;;0.73;;
80131;SDS011;69442;51.442;10.564;2023-07-13T10:16:02;1.10;;;0.60;;
80131;SDS011;69442;51.442;10.564;2023-07-13T10:18:31;2.85;;;0.77;;
80131;SDS011;69442;51.442;10.564;2023-07-13T10:21:18;2.63;;;0.90;;
80131;SDS011;69442;51.442;10.564;2023-07-13T10:23:53;3.05;;;0.63;;
80131;SDS011;69442;51.442;10.564;2023-07-13T10:26:34;1.33;;;0.68;;
80131;SDS011;69442;51.442;10.564;2023-07-13T10:29:02;2.60;;;0.77;;
80131;SDS011;69442;51.442;10.564;2023-07-13T10:31:33;1.75;;;0.73;;
80131;SDS011;69442;51.442;10.564;2023-07-13T10:34:01;2.08;;;0.82;;
80131;SDS011;69442;51.442;10.564;2023-07-13T10:39:02;1.73;;;1.15;;
80131;SDS011;69442;51.442;10.564;2023-07-13T10:41:30;3.03;;;1.00;;
80131;SDS011;69442;51.442;10.564;2023-07-13T10:43:58;1.50;;;0.75;;
80131;SDS011;69442;51.442;10.564;2023-07-13T10:46:25;2.00;;;0.75;;
80131;SDS011;69442;51.442;10.564;2023-07-13T10:48:54;1.88;;;0.82;;
80131;SDS011;69442;51.442;10.564;2023-07-13T10:51:22;1.48;;;0.90;;
80131;SDS011;69442;51.442;10.564;2023-07-13T10:56:47;4.35;;;1.20;;
80131;SDS011;69442;51.442;10.564;2023-07-13T10:59:15;1.98;;;1.00;;
80131;SDS011;69442;51.442;10.564;2023-07-13T11:01:57;3.35;;;0.85;;
80131;SDS011;69442;51.442;10.564;2023-07-13T11:04:41;1.60;;;0.73;;
80131;SDS011;69442;51.442;10.564;2023-07-13T11:07:20;3.47;;;0.90;;
80131;SDS011;69442;51.442;10.564;2023-07-13T11:09:57;4.00;;;0.75;;
80131;SDS011;69442;51.442;10.564;2023-07-13T11:22:48;2.92;;;0.77;;
80131;SDS011;69442;51.442;10.564;2023-07-13T11:25:21;2.78;;;0.88;;
80131;SDS011;69442;51.442;10.564;2023-07-13T11:28:15;5.30;;;0.68;;
80131;SDS011;69442;51.442;10.564;2023-07-13T11:30:43;1.80;;;1.05;;
80131;SDS011;69442;51.442;10.564;2023-07-13T11:33:22;2.00;;;0.73;;
80131;SDS011;69442;51.442;10.564;2023-07-13T11:35:53;1.85;;;0.70;;
80131;SDS011;69442;51.442;10.564;2023-07-13T11:41:05;2.85;;;0.75;;
80131;SDS011;69442;51.442;10.564;2023-07-13T11:43:43;1.83;;;0.80;;
80131;SDS011;69442;51.442;10.564;2023-07-13T11:46:13;4.35;;;0.85;;
80131;SDS011;69442;51.442;10.564;2023-07-13T11:48:40;2.35;;;0.90;;
80131;SDS011;69442;51.442;10.564;2023-07-13T11:51:07;2.50;;;1.10;;
80131;SDS011;69442;51.442;10.564;2023-07-13T11:53:44;2.65;;;0.88;;
80131;SDS011;69442;51.442;10.564;2023-07-13T11:56:12;2.30;;;0.80;;
80131;SDS011;69442;51.442;10.564;2023-07-13T11:58:38;1.83;;;0.80;;
80131;SDS011;69442;51.442;10.564;2023-07-13T12:01:04;2.85;;;1.08;;
80131;SDS011;69442;51.442;10.564;2023-07-13T12:03:32;1.98;;;0.70;;
80131;SDS011;69442;51.442;10.564;2023-07-13T12:06:03;2.28;;;0.77;;
80131;SDS011;69442;51.442;10.564;2023-07-13T12:08:31;2.70;;;1.10;;
80131;SDS011;69442;51.442;10.564;2023-07-13T12:11:06;1.52;;;0.77;;
80131;SDS011;69442;51.442;10.564;2023-07-13T12:13:40;2.17;;;0.90;;
80131;SDS011;69442;51.442;10.564;2023-07-13T12:16:47;2.55;;;0.70;;
80131;SDS011;69442;51.442;10.564;2023-07-13T12:18:57;1.35;;;0.68;;
80131;SDS011;69442;51.442;10.564;2023-07-13T12:21:31;2.90;;;0.50;;
80131;SDS011;69442;51.442;10.564;2023-07-13T12:24:00;1.75;;;0.70;;
80131;SDS011;69442;51.442;10.564;2023-07-13T12:26:29;1.90;;;0.95;;
80131;SDS011;69442;51.442;10.564;2023-07-13T12:28:56;2.42;;;0.90;;
80131;SDS011;69442;51.442;10.564;2023-07-13T12:33:58;2.22;;;0.85;;
80131;SDS011;69442;51.442;10.564;2023-07-13T12:36:25;1.67;;;0.60;;
80131;SDS011;69442;51.442;10.564;2023-07-13T12:38:52;1.95;;;0.60;;
80131;SDS011;69442;51.442;10.564;2023-07-13T12:41:17;1.95;;;0.70;;
80131;SDS011;69442;51.442;10.564;2023-07-13T12:43:43;1.55;;;0.70;;
80131;SDS011;69442;51.442;10.564;2023-07-13T12:46:17;2.67;;;0.70;;
80131;SDS011;69442;51.442;10.564;2023-07-13T12:48:47;2.40;;;0.85;;
80131;SDS011;69442;51.442;10.564;2023-07-13T12:51:14;2.60;;;0.80;;
80131;SDS011;69442;51.442;10.564;2023-07-13T12:53:41;2.05;;;0.70;;
80131;SDS011;69442;51.442;10.564;2023-07-13T12:56:15;1.65;;;0.60;;
80131;SDS011;69442;51.442;10.564;2023-07-13T12:58:46;2.95;;;0.90;;
80131;SDS011;69442;51.442;10.564;2023-07-13T13:01:15;2.05;;;0.80;;
80131;SDS011;69442;51.442;10.564;2023-07-13T13:03:45;1.15;;;0.60;;
80131;SDS011;69442;51.442;10.564;2023-07-13T13:08:41;3.83;;;0.80;;
80131;SDS011;69442;51.442;10.564;2023-07-13T13:11:08;2.17;;;0.80;;
80131;SDS011;69442;51.442;10.564;2023-07-13T13:13:34;2.42;;;0.80;;
80131;SDS011;69442;51.442;10.564;2023-07-13T13:16:43;3.55;;;0.82;;
80131;SDS011;69442;51.442;10.564;2023-07-13T13:18:52;2.20;;;0.70;;
80131;SDS011;69442;51.442;10.564;2023-07-13T13:21:19;3.10;;;0.85;;
80131;SDS011;69442;51.442;10.564;2023-07-13T13:23:45;2.72;;;0.90;;
80131;SDS011;69442;51.442;10.564;2023-07-13T13:26:12;2.85;;;0.90;;
80131;SDS011;69442;51.442;10.564;2023-07-13T13:28:40;1.92;;;0.70;;
80131;SDS011;69442;51.442;10.564;2023-07-13T13:31:07;3.65;;;0.82;;
80131;SDS011;69442;51.442;10.564;2023-07-13T13:33:37;2.05;;;0.80;;
80131;SDS011;69442;51.442;10.564;2023-07-13T13:38:36;2.58;;;0.80;;
80131;SDS011;69442;51.442;10.564;2023-07-13T13:41:02;1.58;;;0.63;;
80131;SDS011;69442;51.442;10.564;2023-07-13T13:43:28;2.65;;;0.90;;
80131;SDS011;69442;51.442;10.564;2023-07-13T13:45:55;3.75;;;1.00;;
80131;SDS011;69442;51.442;10.564;2023-07-13T13:48:32;1.88;;;0.82;;
80131;SDS011;69442;51.442;10.564;2023-07-13T13:50:59;1.98;;;0.90;;
80131;SDS011;69442;51.442;10.564;2023-07-13T13:53:26;2.22;;;0.80;;
80131;SDS011;69442;51.442;10.564;2023-07-13T13:55:51;2.10;;;0.80;;
80131;SDS011;69442;51.442;10.564;2023-07-13T13:58:18;2.35;;;1.13;;
80131;SDS011;69442;51.442;10.564;2023-07-13T14:00:43;1.42;;;0.73;;
80131;SDS011;69442;51.442;10.564;2023-07-13T14:03:17;1.52;;;0.70;;
80131;SDS011;69442;51.442;10.564;2023-07-13T14:05:44;1.73;;;0.80;;
80131;SDS011;69442;51.442;10.564;2023-07-13T14:08:12;2.00;;;0.90;;
80131;SDS011;69442;51.442;10.564;2023-07-13T14:10:42;3.63;;;0.90;;
80131;SDS011;69442;51.442;10.564;2023-07-13T14:13:16;2.40;;;0.70;;
80131;SDS011;69442;51.442;10.564;2023-07-13T14:15:44;3.13;;;0.80;;
80131;SDS011;69442;51.442;10.564;2023-07-13T14:18:10;2.83;;;0.98;;
80131;SDS011;69442;51.442;10.564;2023-07-13T14:20:36;2.15;;;0.80;;
80131;SDS011;69442;51.442;10.564;2023-07-13T14:23:02;1.92;;;0.65;;
80131;SDS011;69442;51.442;10.564;2023-07-13T14:25:27;1.95;;;0.77;;
80131;SDS011;69442;51.442;10.564;2023-07-13T14:27:56;1.95;;;0.80;;
80131;SDS011;69442;51.442;10.564;2023-07-13T14:30:31;1.50;;;0.60;;
80131;SDS011;69442;51.442;10.564;2023-07-13T14:32:56;3.72;;;0.90;;
80131;SDS011;69442;51.442;10.564;2023-07-13T14:35:21;2.35;;;0.98;;
80131;SDS011;69442;51.442;10.564;2023-07-13T14:37:48;3.67;;;0.95;;
80131;SDS011;69442;51.442;10.564;2023-07-13T14:40:15;1.88;;;0.63;;
80131;SDS011;69442;51.442;10.564;2023-07-13T14:42:42;2.70;;;0.88;;
80131;SDS011;69442;51.442;10.564;2023-07-13T14:45:15;1.75;;;0.70;;
80131;SDS011;69442;51.442;10.564;2023-07-13T14:47:42;3.38;;;1.08;;
80131;SDS011;69442;51.442;10.564;2023-07-13T14:50:12;4.03;;;1.00;;
80131;SDS011;69442;51.442;10.564;2023-07-13T14:52:40;3.28;;;1.10;;
80131;SDS011;69442;51.442;10.564;2023-07-13T14:55:13;1.95;;;0.95;;
80131;SDS011;69442;51.442;10.564;2023-07-13T14:57:39;2.65;;;0.90;;
80131;SDS011;69442;51.442;10.564;2023-07-13T15:00:12;3.10;;;0.93;;
80131;SDS011;69442;51.442;10.564;2023-07-13T15:02:38;2.33;;;0.77;;
80131;SDS011;69442;51.442;10.564;2023-07-13T15:05:14;2.80;;;1.20;;
80131;SDS011;69442;51.442;10.564;2023-07-13T15:07:42;1.77;;;0.90;;
80131;SDS011;69442;51.442;10.564;2023-07-13T15:10:14;2.00;;;0.77;;
80131;SDS011;69442;51.442;10.564;2023-07-13T15:12:41;1.50;;;0.60;;